Dehlco, Louisiana
Current Conditions -  °F | °C
As of 12:53 PM on Friday 31 Oct 2014 (Local Time) from KMLU Reporting Station
Clear Clear  
Wind Chill: 67°   Ceiling: Unl
Heat Index: 67°   Visibility: 10mi
Dew Point: 47°   Wind: 16mph
Humidity: 49%   Direction: 340°NNW
Pressure: 30.15"   Gusts: NA
Location:  32.4475°N, 91.7992°W
Report Text: KMLU 311753Z 34014KT 10SM CLR 19/08 A3015 RMK AO2 SLP209 T01940083 10194 20106 50000
Loading
Personal Weather Stations






























Interactive Weather Map
Tropical Storm Tracking
New forecast layout! Learn more

10-Day Weather Forecast

Advertisements
Track Severe Weather on mobile